Aviation Digital Data Service (ADDS)

Output produced by TAFs form (0723 UTC 24 April 2014)
found at http://aviationweather.gov/adds/tafs/
 
KRIL 240520Z 2406/2506 32007KT P6SM SKC 
     FM241300 VRB02KT P6SM FEW250 
     FM241900 27010G18KT P6SM BKN200 
     FM250100 26007KT P6SM SCT200